createdAt,value
2018-11-26T00:02:22.189Z,13.43
2018-11-26T00:07:51.423Z,12.47
2018-11-26T00:13:20.649Z,13.43
2018-11-26T00:18:49.905Z,13.22
2018-11-26T00:24:19.276Z,14.73
2018-11-26T00:29:48.561Z,15.43
2018-11-26T00:35:17.853Z,14.33
2018-11-26T00:40:47.169Z,13.95
2018-11-26T00:46:16.491Z,15.85
2018-11-26T00:51:45.788Z,13.55
2018-11-26T00:57:15.158Z,15.43
2018-11-26T01:02:44.397Z,15.30
2018-11-26T01:08:14.193Z,15.55
2018-11-26T01:13:45.183Z,16.93
2018-11-26T01:19:14.518Z,20.92
2018-11-26T01:24:43.837Z,16.73
2018-11-26T01:30:13.254Z,17.45
2018-11-26T01:35:42.547Z,16.97
2018-11-26T01:41:11.896Z,17.15
2018-11-26T01:46:41.330Z,15.25
2018-11-26T01:52:10.709Z,15.23
2018-11-26T01:57:40.269Z,13.60
2018-11-26T02:03:09.612Z,14.07
2018-11-26T02:08:39.030Z,12.55
2018-11-26T02:14:08.346Z,12.28
2018-11-26T02:19:38.717Z,11.00
2018-11-26T02:25:09.233Z,12.55
2018-11-26T02:30:39.331Z,11.35
2018-11-26T02:36:08.612Z,13.10
2018-11-26T02:41:37.917Z,11.25
2018-11-26T02:47:07.601Z,10.20
2018-11-26T02:52:36.905Z,9.20
2018-11-26T02:58:06.686Z,9.10
2018-11-26T03:03:35.993Z,9.23
2018-11-26T03:09:07.684Z,8.58
2018-11-26T03:14:37.792Z,8.60
2018-11-26T03:20:09.912Z,8.98
2018-11-26T03:25:39.236Z,9.30
2018-11-26T03:31:08.892Z,9.35
2018-11-26T03:36:38.200Z,9.60
2018-11-26T03:42:07.585Z,9.63
2018-11-26T03:47:36.949Z,8.68
2018-11-26T03:53:07.095Z,10.05
2018-11-26T03:58:38.645Z,10.68
2018-11-26T04:04:07.950Z,11.08
2018-11-26T04:09:37.309Z,11.45
2018-11-26T04:15:11.009Z,10.13
2018-11-26T04:20:40.362Z,11.80
2018-11-26T04:26:09.845Z,10.88
2018-11-26T04:31:39.182Z,11.22
2018-11-26T04:37:08.574Z,10.75
2018-11-26T04:42:37.957Z,7.80
2018-11-26T04:48:07.255Z,8.00
2018-11-26T04:53:36.476Z,7.55
2018-11-26T04:59:05.844Z,8.45
2018-11-26T05:04:35.097Z,8.95
2018-11-26T05:10:05.950Z,8.53
2018-11-26T05:15:36.283Z,8.55
2018-11-26T05:21:05.798Z,9.13
2018-11-26T05:26:34.989Z,7.80
2018-11-26T05:32:04.485Z,9.05
2018-11-26T05:37:33.866Z,7.75
2018-11-26T05:43:05.192Z,9.13
2018-11-26T05:48:35.922Z,9.43
2018-11-26T05:54:10.614Z,8.25
2018-11-26T05:59:39.982Z,10.30
2018-11-26T06:05:09.416Z,8.93
2018-11-26T06:10:38.735Z,8.23
2018-11-26T06:16:08.043Z,8.83
2018-11-26T06:21:37.336Z,7.37
2018-11-26T06:27:06.729Z,7.10
2018-11-26T06:32:35.945Z,8.68
2018-11-26T06:38:05.151Z,8.00
2018-11-26T06:43:40.115Z,7.65
2018-11-26T06:49:09.345Z,9.55
2018-11-26T06:54:38.617Z,8.25
2018-11-26T07:00:15.863Z,7.58
2018-11-26T07:05:45.244Z,8.43
2018-11-26T07:11:14.445Z,8.08
2018-11-26T07:16:43.685Z,7.78
2018-11-26T07:22:12.954Z,9.18
2018-11-26T07:27:42.717Z,9.20
2018-11-26T07:33:12.006Z,10.18
2018-11-26T07:38:41.245Z,9.28
2018-11-26T07:44:11.370Z,10.63
2018-11-26T07:49:40.618Z,9.23
2018-11-26T07:55:21.205Z,8.75
2018-11-26T08:00:50.469Z,8.88
2018-11-26T08:06:19.704Z,8.43
2018-11-26T08:11:49.039Z,8.13
2018-11-26T08:17:18.248Z,8.60
2018-11-26T08:22:47.513Z,7.40
2018-11-26T08:28:16.788Z,6.92
2018-11-26T08:33:46.029Z,8.43
2018-11-26T08:39:18.534Z,8.95
2018-11-26T08:44:51.876Z,9.10
2018-11-26T08:50:21.168Z,8.33
2018-11-26T08:55:50.457Z,7.97
2018-11-26T09:01:24.006Z,7.03
2018-11-26T09:06:53.221Z,7.55
2018-11-26T09:12:22.466Z,5.87
2018-11-26T09:17:51.789Z,6.70
2018-11-26T09:23:21.001Z,6.60
2018-11-26T09:28:50.214Z,7.50
2018-11-26T09:34:19.479Z,6.90
2018-11-26T09:39:48.710Z,11.22
2018-11-26T09:45:18.976Z,8.85
2018-11-26T09:50:49.597Z,8.28
2018-11-26T09:56:18.806Z,6.65
2018-11-26T10:01:48.097Z,7.75
2018-11-26T10:07:17.296Z,5.65
2018-11-26T10:12:46.701Z,5.50
2018-11-26T10:18:15.889Z,5.67
2018-11-26T10:23:45.111Z,4.83
2018-11-26T10:29:14.400Z,4.35
2018-11-26T10:34:43.590Z,5.30
2018-11-26T10:40:28.216Z,4.58
2018-11-26T10:45:57.481Z,3.90
2018-11-26T10:51:26.710Z,4.17
2018-11-26T10:56:55.904Z,4.70
2018-11-26T11:02:30.269Z,4.42
2018-11-26T11:07:59.522Z,3.65
2018-11-26T11:13:28.756Z,4.17
2018-11-26T11:18:58.036Z,3.42
2018-11-26T11:24:27.286Z,3.55
2018-11-26T11:29:59.623Z,3.67
2018-11-26T11:35:28.877Z,3.65
2018-11-26T11:40:58.118Z,2.85
2018-11-26T11:46:28.382Z,3.50
2018-11-26T11:51:57.606Z,3.12
2018-11-26T11:57:26.831Z,3.52
2018-11-26T12:02:56.236Z,3.05
2018-11-26T12:08:25.518Z,3.67
2018-11-26T12:13:54.778Z,3.98
2018-11-26T12:19:25.047Z,2.60
2018-11-26T12:24:54.388Z,3.30
2018-11-26T12:30:27.471Z,3.58
2018-11-26T12:35:56.807Z,3.22
2018-11-26T12:41:29.270Z,3.12
2018-11-26T12:46:58.479Z,2.70
2018-11-26T12:52:27.716Z,4.05
2018-11-26T12:57:58.375Z,3.20
2018-11-26T13:03:27.744Z,2.37
2018-11-26T13:08:57.000Z,3.00
2018-11-26T13:14:26.306Z,3.02
2018-11-26T13:19:55.537Z,3.20
2018-11-26T13:25:28.637Z,2.42
2018-11-26T13:30:57.926Z,2.65
2018-11-26T13:36:27.236Z,2.60
2018-11-26T13:41:56.578Z,2.72
2018-11-26T13:47:25.794Z,2.70
2018-11-26T13:52:55.315Z,3.00
2018-11-26T13:58:30.024Z,2.98
2018-11-26T14:04:02.683Z,3.35
2018-11-26T14:09:32.142Z,3.05
2018-11-26T14:15:02.514Z,3.17
2018-11-26T14:20:31.779Z,2.90
2018-11-26T14:26:01.013Z,2.90
2018-11-26T14:31:32.302Z,3.22
2018-11-26T14:37:03.806Z,3.02
2018-11-26T14:42:33.069Z,3.35
2018-11-26T14:48:02.284Z,3.22
2018-11-26T14:53:31.595Z,3.75
2018-11-26T14:59:00.827Z,4.65
2018-11-26T15:04:30.143Z,4.53
2018-11-26T15:09:59.478Z,4.80
2018-11-26T15:15:30.702Z,4.30
2018-11-26T15:21:00.004Z,4.25
2018-11-26T15:26:29.284Z,4.80
2018-11-26T15:31:58.586Z,4.90
2018-11-26T15:37:27.835Z,5.83
2018-11-26T15:42:58.148Z,6.47
2018-11-26T15:48:29.493Z,5.72
2018-11-26T15:53:58.846Z,5.85
2018-11-26T15:59:32.840Z,5.67
2018-11-26T16:05:04.160Z,5.22
2018-11-26T16:10:38.112Z,6.20
2018-11-26T16:16:08.159Z,5.53
2018-11-26T16:21:37.654Z,5.45
2018-11-26T16:27:07.082Z,6.50
2018-11-26T16:32:37.539Z,7.08
2018-11-26T16:38:07.902Z,7.10
2018-11-26T16:43:37.243Z,5.55
2018-11-26T16:49:06.850Z,6.92
2018-11-26T16:54:36.221Z,5.85
2018-11-26T17:00:23.995Z,5.92
2018-11-26T17:05:53.248Z,8.10
2018-11-26T17:11:23.239Z,9.53
2018-11-26T17:16:57.711Z,6.00
2018-11-26T17:22:29.274Z,6.35
2018-11-26T17:27:58.698Z,6.22
2018-11-26T17:33:28.099Z,5.05
2018-11-26T17:38:57.372Z,7.17
2018-11-26T17:44:26.654Z,6.20
2018-11-26T17:49:57.991Z,6.83
2018-11-26T17:55:27.475Z,6.28
2018-11-26T18:01:07.993Z,5.87
2018-11-26T18:06:38.670Z,6.10
2018-11-26T18:12:11.821Z,6.25
2018-11-26T18:17:41.468Z,6.10
2018-11-26T18:23:11.469Z,6.05
2018-11-26T18:28:41.743Z,5.62
2018-11-26T18:34:11.091Z,5.67
2018-11-26T18:39:40.361Z,6.05
2018-11-26T18:45:14.503Z,5.40
2018-11-26T18:50:44.054Z,6.47
2018-11-26T18:56:14.075Z,6.25
2018-11-26T19:01:43.403Z,8.05
2018-11-26T19:07:12.697Z,6.33
2018-11-26T19:12:42.915Z,6.12
2018-11-26T19:18:20.192Z,8.55
2018-11-26T19:23:49.714Z,6.65
2018-11-26T19:29:19.322Z,7.65
2018-11-26T19:34:48.617Z,8.38
2018-11-26T19:40:18.690Z,8.05
2018-11-26T19:45:48.051Z,8.03
2018-11-26T19:51:17.435Z,8.58
2018-11-26T19:56:46.755Z,8.43
2018-11-26T20:02:16.082Z,9.75
2018-11-26T20:07:45.350Z,10.38
2018-11-26T20:13:14.577Z,10.25
2018-11-26T20:18:44.983Z,9.15
2018-11-26T20:24:14.355Z,9.93
2018-11-26T20:29:43.689Z,9.83
2018-11-26T20:35:13.288Z,9.15
2018-11-26T20:40:42.595Z,9.20
2018-11-26T20:46:12.075Z,8.20
2018-11-26T20:51:42.115Z,8.68
2018-11-26T20:57:12.213Z,8.08
2018-11-26T21:02:42.584Z,7.30
2018-11-26T21:08:11.997Z,7.90
2018-11-26T21:13:41.391Z,8.23
2018-11-26T21:19:10.842Z,7.87
2018-11-26T21:24:40.339Z,8.60
2018-11-26T21:30:17.869Z,7.53
2018-11-26T21:35:47.224Z,9.13
2018-11-26T21:41:18.776Z,8.90
2018-11-26T21:46:52.882Z,8.40
2018-11-26T21:52:17.833Z,7.50
2018-11-26T21:57:47.724Z,7.83
2018-11-26T22:03:17.319Z,8.10
2018-11-26T22:08:47.652Z,7.83
2018-11-26T22:14:20.782Z,8.03
2018-11-26T22:19:50.395Z,8.45
2018-11-26T22:25:19.797Z,7.08
2018-11-26T22:30:49.082Z,7.85
2018-11-26T22:36:18.463Z,7.85
2018-11-26T22:41:47.894Z,7.78
2018-11-26T22:47:17.224Z,7.17
2018-11-26T22:52:47.563Z,6.87
2018-11-26T22:58:16.894Z,7.67
2018-11-26T23:03:46.841Z,7.90
2018-11-26T23:09:17.779Z,6.90
2018-11-26T23:14:47.724Z,7.37
2018-11-26T23:20:19.438Z,7.08
2018-11-26T23:25:49.315Z,7.35
2018-11-26T23:31:18.616Z,7.15
2018-11-26T23:36:48.898Z,7.50
2018-11-26T23:42:18.155Z,7.37
2018-11-26T23:47:47.512Z,7.30
2018-11-26T23:53:16.891Z,7.22
2018-11-26T23:58:47.167Z,7.50
